sensor_id;sensor_type;location;lat;lon;timestamp;P1;durP1;ratioP1;P2;durP2;ratioP2
11121;SDS011;5615;49.304;10.576;2023-02-11T00:01:37;69.73;;;39.30;;
11121;SDS011;5615;49.304;10.576;2023-02-11T00:04:04;73.60;;;39.77;;
11121;SDS011;5615;49.304;10.576;2023-02-11T00:06:32;72.30;;;37.67;;
11121;SDS011;5615;49.304;10.576;2023-02-11T00:09:00;75.53;;;38.97;;
11121;SDS011;5615;49.304;10.576;2023-02-11T00:11:28;74.47;;;39.67;;
11121;SDS011;5615;49.304;10.576;2023-02-11T00:13:57;70.53;;;37.53;;
11121;SDS011;5615;49.304;10.576;2023-02-11T00:16:25;73.73;;;38.70;;
11121;SDS011;5615;49.304;10.576;2023-02-11T00:18:52;77.73;;;40.37;;
11121;SDS011;5615;49.304;10.576;2023-02-11T00:21:19;80.73;;;42.83;;
11121;SDS011;5615;49.304;10.576;2023-02-11T00:23:47;86.00;;;43.23;;
11121;SDS011;5615;49.304;10.576;2023-02-11T00:26:14;85.43;;;41.97;;
11121;SDS011;5615;49.304;10.576;2023-02-11T00:28:42;72.97;;;39.57;;
11121;SDS011;5615;49.304;10.576;2023-02-11T00:31:11;80.37;;;41.43;;
11121;SDS011;5615;49.304;10.576;2023-02-11T00:33:38;78.03;;;40.47;;
11121;SDS011;5615;49.304;10.576;2023-02-11T00:36:05;75.07;;;38.37;;
11121;SDS011;5615;49.304;10.576;2023-02-11T00:38:33;74.93;;;37.73;;
11121;SDS011;5615;49.304;10.576;2023-02-11T00:41:00;74.00;;;38.10;;
11121;SDS011;5615;49.304;10.576;2023-02-11T00:43:27;74.97;;;38.27;;
11121;SDS011;5615;49.304;10.576;2023-02-11T00:45:53;74.03;;;37.97;;
11121;SDS011;5615;49.304;10.576;2023-02-11T00:48:21;74.33;;;38.13;;
11121;SDS011;5615;49.304;10.576;2023-02-11T00:50:48;76.03;;;39.63;;
11121;SDS011;5615;49.304;10.576;2023-02-11T00:53:14;81.03;;;39.87;;
11121;SDS011;5615;49.304;10.576;2023-02-11T00:55:41;80.87;;;39.57;;
11121;SDS011;5615;49.304;10.576;2023-02-11T00:58:07;76.27;;;40.37;;
11121;SDS011;5615;49.304;10.576;2023-02-11T01:00:34;77.70;;;41.43;;
11121;SDS011;5615;49.304;10.576;2023-02-11T01:03:01;87.30;;;42.63;;
11121;SDS011;5615;49.304;10.576;2023-02-11T01:05:29;79.13;;;39.57;;
11121;SDS011;5615;49.304;10.576;2023-02-11T01:07:55;74.10;;;40.40;;
11121;SDS011;5615;49.304;10.576;2023-02-11T01:10:22;80.03;;;40.53;;
11121;SDS011;5615;49.304;10.576;2023-02-11T01:12:49;76.53;;;39.07;;
11121;SDS011;5615;49.304;10.576;2023-02-11T01:15:17;70.57;;;36.60;;
11121;SDS011;5615;49.304;10.576;2023-02-11T01:17:44;75.90;;;37.60;;
11121;SDS011;5615;49.304;10.576;2023-02-11T01:20:13;73.60;;;35.23;;
11121;SDS011;5615;49.304;10.576;2023-02-11T01:22:43;61.63;;;32.43;;
11121;SDS011;5615;49.304;10.576;2023-02-11T01:25:09;72.33;;;36.53;;
11121;SDS011;5615;49.304;10.576;2023-02-11T01:27:36;69.00;;;35.33;;
11121;SDS011;5615;49.304;10.576;2023-02-11T01:30:04;70.20;;;35.03;;
11121;SDS011;5615;49.304;10.576;2023-02-11T01:32:32;66.93;;;36.10;;
11121;SDS011;5615;49.304;10.576;2023-02-11T01:34:59;71.90;;;35.83;;
11121;SDS011;5615;49.304;10.576;2023-02-11T01:37:25;72.27;;;37.57;;
11121;SDS011;5615;49.304;10.576;2023-02-11T01:39:53;73.67;;;35.93;;
11121;SDS011;5615;49.304;10.576;2023-02-11T01:42:21;67.10;;;38.13;;
11121;SDS011;5615;49.304;10.576;2023-02-11T01:44:48;71.70;;;38.73;;
11121;SDS011;5615;49.304;10.576;2023-02-11T01:47:16;64.53;;;37.57;;
11121;SDS011;5615;49.304;10.576;2023-02-11T01:49:43;69.73;;;36.97;;
11121;SDS011;5615;49.304;10.576;2023-02-11T01:52:13;68.90;;;37.17;;
11121;SDS011;5615;49.304;10.576;2023-02-11T01:54:47;62.97;;;36.50;;
11121;SDS011;5615;49.304;10.576;2023-02-11T01:57:36;70.47;;;36.33;;
11121;SDS011;5615;49.304;10.576;2023-02-11T02:00:07;64.07;;;34.67;;
11121;SDS011;5615;49.304;10.576;2023-02-11T02:02:39;68.47;;;36.43;;
11121;SDS011;5615;49.304;10.576;2023-02-11T02:05:14;63.10;;;33.70;;
11121;SDS011;5615;49.304;10.576;2023-02-11T02:07:46;70.17;;;34.67;;
11121;SDS011;5615;49.304;10.576;2023-02-11T02:10:25;63.53;;;33.53;;
11121;SDS011;5615;49.304;10.576;2023-02-11T02:12:54;57.20;;;32.20;;
11121;SDS011;5615;49.304;10.576;2023-02-11T02:15:23;59.47;;;31.33;;
11121;SDS011;5615;49.304;10.576;2023-02-11T02:17:59;59.40;;;33.03;;
11121;SDS011;5615;49.304;10.576;2023-02-11T02:20:55;61.53;;;33.17;;
11121;SDS011;5615;49.304;10.576;2023-02-11T02:23:48;58.93;;;31.37;;
11121;SDS011;5615;49.304;10.576;2023-02-11T02:26:38;59.30;;;31.73;;
11121;SDS011;5615;49.304;10.576;2023-02-11T02:29:32;62.43;;;33.37;;
11121;SDS011;5615;49.304;10.576;2023-02-11T02:32:28;57.57;;;31.40;;
11121;SDS011;5615;49.304;10.576;2023-02-11T02:35:14;59.50;;;32.43;;
11121;SDS011;5615;49.304;10.576;2023-02-11T02:37:55;59.93;;;31.73;;
11121;SDS011;5615;49.304;10.576;2023-02-11T02:40:26;60.63;;;31.37;;
11121;SDS011;5615;49.304;10.576;2023-02-11T02:42:56;57.90;;;31.00;;
11121;SDS011;5615;49.304;10.576;2023-02-11T02:45:25;57.63;;;30.87;;
11121;SDS011;5615;49.304;10.576;2023-02-11T02:47:54;54.67;;;30.80;;
11121;SDS011;5615;49.304;10.576;2023-02-11T02:50:21;59.73;;;31.63;;
11121;SDS011;5615;49.304;10.576;2023-02-11T02:52:55;55.83;;;32.13;;
11121;SDS011;5615;49.304;10.576;2023-02-11T02:55:35;57.00;;;30.43;;
11121;SDS011;5615;49.304;10.576;2023-02-11T02:58:21;58.27;;;32.83;;
11121;SDS011;5615;49.304;10.576;2023-02-11T03:01:16;60.20;;;31.10;;
11121;SDS011;5615;49.304;10.576;2023-02-11T03:03:53;53.60;;;30.50;;
11121;SDS011;5615;49.304;10.576;2023-02-11T03:06:27;57.70;;;30.67;;
11121;SDS011;5615;49.304;10.576;2023-02-11T03:08:58;58.53;;;30.17;;
11121;SDS011;5615;49.304;10.576;2023-02-11T03:11:30;51.27;;;29.27;;
11121;SDS011;5615;49.304;10.576;2023-02-11T03:13:57;60.60;;;30.47;;
11121;SDS011;5615;49.304;10.576;2023-02-11T03:16:28;51.77;;;28.90;;
11121;SDS011;5615;49.304;10.576;2023-02-11T03:19:02;52.77;;;28.43;;
11121;SDS011;5615;49.304;10.576;2023-02-11T03:21:33;55.90;;;28.07;;
11121;SDS011;5615;49.304;10.576;2023-02-11T03:24:05;46.23;;;27.20;;
11121;SDS011;5615;49.304;10.576;2023-02-11T03:26:36;52.83;;;28.57;;
11121;SDS011;5615;49.304;10.576;2023-02-11T03:29:07;47.30;;;27.43;;
11121;SDS011;5615;49.304;10.576;2023-02-11T03:31:40;45.47;;;26.70;;
11121;SDS011;5615;49.304;10.576;2023-02-11T03:34:14;51.27;;;27.67;;
11121;SDS011;5615;49.304;10.576;2023-02-11T03:36:45;44.30;;;25.23;;
11121;SDS011;5615;49.304;10.576;2023-02-11T03:39:18;45.03;;;26.23;;
11121;SDS011;5615;49.304;10.576;2023-02-11T03:41:47;41.77;;;24.33;;
11121;SDS011;5615;49.304;10.576;2023-02-11T03:44:16;38.77;;;22.93;;
11121;SDS011;5615;49.304;10.576;2023-02-11T03:46:46;41.53;;;23.73;;
11121;SDS011;5615;49.304;10.576;2023-02-11T03:49:17;37.70;;;23.20;;
11121;SDS011;5615;49.304;10.576;2023-02-11T03:51:46;41.37;;;23.70;;
11121;SDS011;5615;49.304;10.576;2023-02-11T03:54:17;37.57;;;23.07;;
11121;SDS011;5615;49.304;10.576;2023-02-11T03:56:50;39.03;;;23.13;;
11121;SDS011;5615;49.304;10.576;2023-02-11T03:59:18;33.53;;;21.27;;
11121;SDS011;5615;49.304;10.576;2023-02-11T04:01:45;38.97;;;22.43;;
11121;SDS011;5615;49.304;10.576;2023-02-11T04:04:12;36.17;;;22.60;;
11121;SDS011;5615;49.304;10.576;2023-02-11T04:06:40;37.40;;;21.63;;
11121;SDS011;5615;49.304;10.576;2023-02-11T04:09:07;34.63;;;21.87;;
11121;SDS011;5615;49.304;10.576;2023-02-11T04:11:34;39.67;;;22.97;;
11121;SDS011;5615;49.304;10.576;2023-02-11T04:14:01;37.20;;;22.50;;
11121;SDS011;5615;49.304;10.576;2023-02-11T04:16:27;36.97;;;22.57;;
11121;SDS011;5615;49.304;10.576;2023-02-11T04:18:54;37.43;;;22.87;;
11121;SDS011;5615;49.304;10.576;2023-02-11T04:21:21;36.00;;;21.63;;
11121;SDS011;5615;49.304;10.576;2023-02-11T04:23:49;36.53;;;22.73;;
11121;SDS011;5615;49.304;10.576;2023-02-11T04:26:16;33.30;;;21.43;;
11121;SDS011;5615;49.304;10.576;2023-02-11T04:28:42;36.23;;;22.17;;
11121;SDS011;5615;49.304;10.576;2023-02-11T04:31:09;36.60;;;22.30;;
11121;SDS011;5615;49.304;10.576;2023-02-11T04:33:36;39.90;;;22.80;;
11121;SDS011;5615;49.304;10.576;2023-02-11T04:36:03;33.73;;;22.27;;
11121;SDS011;5615;49.304;10.576;2023-02-11T04:38:30;37.50;;;23.00;;
11121;SDS011;5615;49.304;10.576;2023-02-11T04:40:58;34.40;;;21.80;;
11121;SDS011;5615;49.304;10.576;2023-02-11T04:43:25;35.03;;;21.23;;
11121;SDS011;5615;49.304;10.576;2023-02-11T04:45:54;36.37;;;21.43;;
11121;SDS011;5615;49.304;10.576;2023-02-11T04:48:22;33.10;;;22.07;;
11121;SDS011;5615;49.304;10.576;2023-02-11T04:50:48;32.23;;;20.50;;
11121;SDS011;5615;49.304;10.576;2023-02-11T04:53:15;33.27;;;20.80;;
11121;SDS011;5615;49.304;10.576;2023-02-11T04:55:41;35.73;;;21.33;;
11121;SDS011;5615;49.304;10.576;2023-02-11T04:58:09;30.13;;;19.73;;
11121;SDS011;5615;49.304;10.576;2023-02-11T05:00:36;31.43;;;20.77;;
11121;SDS011;5615;49.304;10.576;2023-02-11T05:03:02;28.60;;;19.30;;
11121;SDS011;5615;49.304;10.576;2023-02-11T05:05:29;34.80;;;21.03;;
11121;SDS011;5615;49.304;10.576;2023-02-11T05:07:56;30.33;;;19.27;;
11121;SDS011;5615;49.304;10.576;2023-02-11T05:10:22;33.03;;;20.87;;
11121;SDS011;5615;49.304;10.576;2023-02-11T05:12:49;31.70;;;20.83;;
11121;SDS011;5615;49.304;10.576;2023-02-11T05:15:17;32.63;;;20.00;;
11121;SDS011;5615;49.304;10.576;2023-02-11T05:17:43;30.13;;;20.77;;
11121;SDS011;5615;49.304;10.576;2023-02-11T05:20:10;32.90;;;21.27;;
11121;SDS011;5615;49.304;10.576;2023-02-11T05:22:37;31.40;;;20.00;;
11121;SDS011;5615;49.304;10.576;2023-02-11T05:25:04;48.73;;;28.90;;
11121;SDS011;5615;49.304;10.576;2023-02-11T05:27:31;39.13;;;23.93;;
11121;SDS011;5615;49.304;10.576;2023-02-11T05:29:57;32.53;;;20.60;;
11121;SDS011;5615;49.304;10.576;2023-02-11T05:32:25;31.87;;;19.40;;
11121;SDS011;5615;49.304;10.576;2023-02-11T05:34:52;33.77;;;20.07;;
11121;SDS011;5615;49.304;10.576;2023-02-11T05:37:19;32.20;;;20.43;;
11121;SDS011;5615;49.304;10.576;2023-02-11T05:39:45;32.77;;;20.47;;
11121;SDS011;5615;49.304;10.576;2023-02-11T05:42:12;29.27;;;18.90;;
11121;SDS011;5615;49.304;10.576;2023-02-11T05:44:39;29.70;;;18.87;;
11121;SDS011;5615;49.304;10.576;2023-02-11T05:47:06;30.03;;;18.80;;
11121;SDS011;5615;49.304;10.576;2023-02-11T05:49:34;30.73;;;18.77;;
11121;SDS011;5615;49.304;10.576;2023-02-11T05:52:01;30.73;;;19.50;;
11121;SDS011;5615;49.304;10.576;2023-02-11T05:54:27;32.57;;;21.60;;
11121;SDS011;5615;49.304;10.576;2023-02-11T05:56:54;33.43;;;21.87;;
11121;SDS011;5615;49.304;10.576;2023-02-11T05:59:20;31.27;;;20.57;;
11121;SDS011;5615;49.304;10.576;2023-02-11T06:01:47;31.27;;;19.53;;
11121;SDS011;5615;49.304;10.576;2023-02-11T06:04:14;30.90;;;18.57;;
11121;SDS011;5615;49.304;10.576;2023-02-11T06:06:42;28.70;;;18.43;;
11121;SDS011;5615;49.304;10.576;2023-02-11T06:09:08;29.70;;;18.00;;
11121;SDS011;5615;49.304;10.576;2023-02-11T06:11:35;28.20;;;18.73;;
11121;SDS011;5615;49.304;10.576;2023-02-11T06:14:02;33.93;;;19.47;;
11121;SDS011;5615;49.304;10.576;2023-02-11T06:16:29;28.87;;;18.20;;
11121;SDS011;5615;49.304;10.576;2023-02-11T06:18:55;30.60;;;20.10;;
11121;SDS011;5615;49.304;10.576;2023-02-11T06:21:22;29.93;;;18.97;;
11121;SDS011;5615;49.304;10.576;2023-02-11T06:23:50;27.57;;;17.90;;
11121;SDS011;5615;49.304;10.576;2023-02-11T06:26:17;30.90;;;18.50;;
11121;SDS011;5615;49.304;10.576;2023-02-11T06:28:45;28.87;;;18.60;;
11121;SDS011;5615;49.304;10.576;2023-02-11T06:31:12;29.83;;;18.23;;
11121;SDS011;5615;49.304;10.576;2023-02-11T06:33:40;26.53;;;17.87;;
11121;SDS011;5615;49.304;10.576;2023-02-11T06:36:10;29.77;;;19.20;;
11121;SDS011;5615;49.304;10.576;2023-02-11T06:38:38;31.57;;;18.40;;
11121;SDS011;5615;49.304;10.576;2023-02-11T06:41:07;27.97;;;17.93;;
11121;SDS011;5615;49.304;10.576;2023-02-11T06:43:34;37.60;;;22.47;;
11121;SDS011;5615;49.304;10.576;2023-02-11T06:46:01;61.93;;;37.17;;
11121;SDS011;5615;49.304;10.576;2023-02-11T06:48:27;39.63;;;24.77;;
11121;SDS011;5615;49.304;10.576;2023-02-11T06:50:54;138.70;;;69.60;;
11121;SDS011;5615;49.304;10.576;2023-02-11T06:53:21;56.63;;;31.40;;
11121;SDS011;5615;49.304;10.576;2023-02-11T06:55:47;41.97;;;26.00;;
11121;SDS011;5615;49.304;10.576;2023-02-11T06:58:15;30.97;;;17.70;;
11121;SDS011;5615;49.304;10.576;2023-02-11T07:00:42;30.13;;;17.80;;
11121;SDS011;5615;49.304;10.576;2023-02-11T07:03:08;24.40;;;16.40;;
11121;SDS011;5615;49.304;10.576;2023-02-11T07:05:35;28.00;;;17.30;;
11121;SDS011;5615;49.304;10.576;2023-02-11T07:08:02;27.33;;;17.33;;
11121;SDS011;5615;49.304;10.576;2023-02-11T07:10:29;26.00;;;17.30;;
11121;SDS011;5615;49.304;10.576;2023-02-11T07:12:56;25.73;;;16.50;;
11121;SDS011;5615;49.304;10.576;2023-02-11T07:15:24;26.27;;;16.50;;
11121;SDS011;5615;49.304;10.576;2023-02-11T07:17:50;24.30;;;16.07;;
11121;SDS011;5615;49.304;10.576;2023-02-11T07:20:17;22.57;;;15.43;;
11121;SDS011;5615;49.304;10.576;2023-02-11T07:22:44;24.73;;;15.40;;
11121;SDS011;5615;49.304;10.576;2023-02-11T07:25:10;23.63;;;15.03;;
11121;SDS011;5615;49.304;10.576;2023-02-11T07:27:37;24.17;;;14.73;;
11121;SDS011;5615;49.304;10.576;2023-02-11T07:30:04;24.57;;;14.53;;
11121;SDS011;5615;49.304;10.576;2023-02-11T07:32:32;23.40;;;14.23;;
11121;SDS011;5615;49.304;10.576;2023-02-11T07:34:59;19.90;;;13.40;;
11121;SDS011;5615;49.304;10.576;2023-02-11T07:37:25;21.23;;;13.53;;
11121;SDS011;5615;49.304;10.576;2023-02-11T07:39:52;22.20;;;14.43;;
11121;SDS011;5615;49.304;10.576;2023-02-11T07:42:18;20.90;;;13.60;;
11121;SDS011;5615;49.304;10.576;2023-02-11T07:44:45;20.97;;;13.50;;
11121;SDS011;5615;49.304;10.576;2023-02-11T07:47:12;20.63;;;13.50;;
11121;SDS011;5615;49.304;10.576;2023-02-11T07:49:39;19.43;;;13.90;;
11121;SDS011;5615;49.304;10.576;2023-02-11T07:52:06;20.73;;;13.00;;
11121;SDS011;5615;49.304;10.576;2023-02-11T07:54:33;19.40;;;13.40;;
11121;SDS011;5615;49.304;10.576;2023-02-11T07:56:59;20.47;;;12.70;;
11121;SDS011;5615;49.304;10.576;2023-02-11T07:59:26;17.03;;;11.97;;
11121;SDS011;5615;49.304;10.576;2023-02-11T08:01:52;23.17;;;13.73;;
11121;SDS011;5615;49.304;10.576;2023-02-11T08:04:19;20.50;;;13.10;;
11121;SDS011;5615;49.304;10.576;2023-02-11T08:06:47;21.97;;;13.10;;
11121;SDS011;5615;49.304;10.576;2023-02-11T08:09:16;19.57;;;12.73;;
11121;SDS011;5615;49.304;10.576;2023-02-11T08:11:43;18.90;;;13.20;;
11121;SDS011;5615;49.304;10.576;2023-02-11T08:14:10;19.43;;;13.80;;
11121;SDS011;5615;49.304;10.576;2023-02-11T08:16:37;18.53;;;12.07;;
11121;SDS011;5615;49.304;10.576;2023-02-11T08:19:05;17.90;;;12.33;;
11121;SDS011;5615;49.304;10.576;2023-02-11T08:21:33;19.00;;;11.67;;
11121;SDS011;5615;49.304;10.576;2023-02-11T08:24:01;23.83;;;15.13;;
11121;SDS011;5615;49.304;10.576;2023-02-11T08:26:29;28.47;;;17.33;;
11121;SDS011;5615;49.304;10.576;2023-02-11T08:28:58;26.67;;;15.60;;
11121;SDS011;5615;49.304;10.576;2023-02-11T08:31:26;23.20;;;15.27;;
11121;SDS011;5615;49.304;10.576;2023-02-11T08:33:54;29.67;;;17.57;;
11121;SDS011;5615;49.304;10.576;2023-02-11T08:36:23;27.03;;;16.23;;
11121;SDS011;5615;49.304;10.576;2023-02-11T08:38:52;19.00;;;13.30;;
11121;SDS011;5615;49.304;10.576;2023-02-11T08:41:20;20.83;;;13.67;;
11121;SDS011;5615;49.304;10.576;2023-02-11T08:43:47;20.17;;;12.57;;
11121;SDS011;5615;49.304;10.576;2023-02-11T08:46:15;22.77;;;13.77;;
11121;SDS011;5615;49.304;10.576;2023-02-11T08:48:42;24.50;;;14.57;;
11121;SDS011;5615;49.304;10.576;2023-02-11T08:51:11;22.70;;;14.03;;
11121;SDS011;5615;49.304;10.576;2023-02-11T08:53:41;18.73;;;12.30;;
11121;SDS011;5615;49.304;10.576;2023-02-11T08:56:08;29.90;;;18.27;;
11121;SDS011;5615;49.304;10.576;2023-02-11T08:58:37;20.87;;;12.50;;
11121;SDS011;5615;49.304;10.576;2023-02-11T09:01:07;17.37;;;12.13;;
11121;SDS011;5615;49.304;10.576;2023-02-11T09:03:34;16.63;;;11.90;;
11121;SDS011;5615;49.304;10.576;2023-02-11T09:06:02;18.17;;;12.00;;
11121;SDS011;5615;49.304;10.576;2023-02-11T09:08:32;16.43;;;11.80;;
11121;SDS011;5615;49.304;10.576;2023-02-11T09:10:59;22.07;;;13.50;;
11121;SDS011;5615;49.304;10.576;2023-02-11T09:13:26;16.00;;;11.40;;
11121;SDS011;5615;49.304;10.576;2023-02-11T09:15:54;19.00;;;11.90;;
11121;SDS011;5615;49.304;10.576;2023-02-11T09:18:21;25.00;;;13.13;;
11121;SDS011;5615;49.304;10.576;2023-02-11T09:20:47;34.57;;;17.07;;
11121;SDS011;5615;49.304;10.576;2023-02-11T09:23:14;24.20;;;14.23;;
11121;SDS011;5615;49.304;10.576;2023-02-11T09:25:41;22.63;;;13.77;;
11121;SDS011;5615;49.304;10.576;2023-02-11T09:28:07;17.73;;;11.10;;
11121;SDS011;5615;49.304;10.576;2023-02-11T09:30:35;20.97;;;12.77;;
11121;SDS011;5615;49.304;10.576;2023-02-11T09:33:04;17.87;;;11.67;;
11121;SDS011;5615;49.304;10.576;2023-02-11T09:35:31;20.30;;;11.53;;
11121;SDS011;5615;49.304;10.576;2023-02-11T09:37:58;30.80;;;14.27;;
11121;SDS011;5615;49.304;10.576;2023-02-11T09:40:24;35.77;;;16.80;;
11121;SDS011;5615;49.304;10.576;2023-02-11T09:42:52;17.90;;;11.67;;
11121;SDS011;5615;49.304;10.576;2023-02-11T09:45:26;15.13;;;10.60;;
11121;SDS011;5615;49.304;10.576;2023-02-11T09:47:54;25.23;;;14.20;;
11121;SDS011;5615;49.304;10.576;2023-02-11T09:50:24;21.00;;;12.43;;
11121;SDS011;5615;49.304;10.576;2023-02-11T09:52:56;18.07;;;12.13;;
11121;SDS011;5615;49.304;10.576;2023-02-11T09:55:26;27.80;;;14.13;;
11121;SDS011;5615;49.304;10.576;2023-02-11T09:57:54;25.57;;;13.93;;
11121;SDS011;5615;49.304;10.576;2023-02-11T10:00:22;18.90;;;12.40;;
11121;SDS011;5615;49.304;10.576;2023-02-11T10:02:57;20.23;;;13.10;;
11121;SDS011;5615;49.304;10.576;2023-02-11T10:05:42;25.03;;;13.83;;
11121;SDS011;5615;49.304;10.576;2023-02-11T10:08:17;32.80;;;16.07;;
11121;SDS011;5615;49.304;10.576;2023-02-11T10:10:54;23.10;;;14.60;;
11121;SDS011;5615;49.304;10.576;2023-02-11T10:13:29;23.40;;;13.37;;
11121;SDS011;5615;49.304;10.576;2023-02-11T10:16:16;21.13;;;12.07;;
11121;SDS011;5615;49.304;10.576;2023-02-11T10:18:57;28.40;;;16.03;;
11121;SDS011;5615;49.304;10.576;2023-02-11T10:21:40;35.20;;;15.13;;
11121;SDS011;5615;49.304;10.576;2023-02-11T10:24:15;25.90;;;14.60;;
11121;SDS011;5615;49.304;10.576;2023-02-11T10:26:42;28.83;;;17.00;;
11121;SDS011;5615;49.304;10.576;2023-02-11T10:29:11;21.00;;;13.07;;
11121;SDS011;5615;49.304;10.576;2023-02-11T10:31:48;19.80;;;14.80;;
11121;SDS011;5615;49.304;10.576;2023-02-11T10:34:15;23.97;;;15.73;;
11121;SDS011;5615;49.304;10.576;2023-02-11T10:36:43;22.37;;;12.07;;
11121;SDS011;5615;49.304;10.576;2023-02-11T10:39:11;16.93;;;11.17;;
11121;SDS011;5615;49.304;10.576;2023-02-11T10:41:40;23.77;;;12.10;;
11121;SDS011;5615;49.304;10.576;2023-02-11T10:44:12;18.73;;;12.47;;
11121;SDS011;5615;49.304;10.576;2023-02-11T10:46:49;22.90;;;13.23;;
11121;SDS011;5615;49.304;10.576;2023-02-11T10:49:32;15.00;;;10.87;;
11121;SDS011;5615;49.304;10.576;2023-02-11T10:52:16;25.77;;;14.07;;
11121;SDS011;5615;49.304;10.576;2023-02-11T10:54:56;14.47;;;11.30;;
11121;SDS011;5615;49.304;10.576;2023-02-11T10:57:25;18.17;;;11.90;;
11121;SDS011;5615;49.304;10.576;2023-02-11T10:59:56;17.60;;;11.13;;
11121;SDS011;5615;49.304;10.576;2023-02-11T11:02:27;27.63;;;14.47;;
11121;SDS011;5615;49.304;10.576;2023-02-11T11:04:56;18.17;;;11.60;;
11121;SDS011;5615;49.304;10.576;2023-02-11T11:07:27;21.77;;;12.30;;
11121;SDS011;5615;49.304;10.576;2023-02-11T11:09:56;17.17;;;11.90;;
11121;SDS011;5615;49.304;10.576;2023-02-11T11:12:27;16.27;;;12.30;;
11121;SDS011;5615;49.304;10.576;2023-02-11T11:15:15;18.80;;;12.03;;
11121;SDS011;5615;49.304;10.576;2023-02-11T11:17:45;18.37;;;12.23;;
11121;SDS011;5615;49.304;10.576;2023-02-11T11:20:21;16.63;;;11.57;;
11121;SDS011;5615;49.304;10.576;2023-02-11T11:22:52;17.30;;;12.43;;
11121;SDS011;5615;49.304;10.576;2023-02-11T11:25:34;15.93;;;11.83;;
11121;SDS011;5615;49.304;10.576;2023-02-11T11:28:04;22.63;;;12.17;;
11121;SDS011;5615;49.304;10.576;2023-02-11T11:30:32;17.23;;;11.97;;
11121;SDS011;5615;49.304;10.576;2023-02-11T11:33:12;19.43;;;12.23;;
11121;SDS011;5615;49.304;10.576;2023-02-11T11:35:50;15.20;;;11.70;;
11121;SDS011;5615;49.304;10.576;2023-02-11T11:38:23;18.60;;;11.80;;
11121;SDS011;5615;49.304;10.576;2023-02-11T11:43:44;23.83;;;16.03;;
11121;SDS011;5615;49.304;10.576;2023-02-11T11:46:22;20.30;;;12.57;;
11121;SDS011;5615;49.304;10.576;2023-02-11T11:48:52;20.20;;;11.77;;
11121;SDS011;5615;49.304;10.576;2023-02-11T11:51:25;24.20;;;12.47;;
11121;SDS011;5615;49.304;10.576;2023-02-11T11:53:56;17.10;;;11.50;;
11121;SDS011;5615;49.304;10.576;2023-02-11T11:56:26;18.37;;;12.00;;
11121;SDS011;5615;49.304;10.576;2023-02-11T11:58:55;17.10;;;11.47;;
11121;SDS011;5615;49.304;10.576;2023-02-11T12:01:27;19.43;;;13.13;;
11121;SDS011;5615;49.304;10.576;2023-02-11T12:04:17;16.73;;;12.67;;
11121;SDS011;5615;49.304;10.576;2023-02-11T12:06:56;18.67;;;12.77;;
11121;SDS011;5615;49.304;10.576;2023-02-11T12:09:36;19.10;;;12.83;;
11121;SDS011;5615;49.304;10.576;2023-02-11T12:12:16;20.30;;;12.87;;
11121;SDS011;5615;49.304;10.576;2023-02-11T12:15:07;21.13;;;15.17;;
11121;SDS011;5615;49.304;10.576;2023-02-11T12:17:50;22.37;;;13.30;;
11121;SDS011;5615;49.304;10.576;2023-02-11T12:20:28;20.77;;;13.97;;
11121;SDS011;5615;49.304;10.576;2023-02-11T12:23:11;22.90;;;14.20;;
11121;SDS011;5615;49.304;10.576;2023-02-11T12:25:54;21.97;;;13.03;;
11121;SDS011;5615;49.304;10.576;2023-02-11T12:28:27;20.57;;;13.43;;
11121;SDS011;5615;49.304;10.576;2023-02-11T12:31:05;17.97;;;13.37;;
11121;SDS011;5615;49.304;10.576;2023-02-11T12:33:58;21.53;;;14.20;;
11121;SDS011;5615;49.304;10.576;2023-02-11T12:36:37;23.30;;;15.87;;
11121;SDS011;5615;49.304;10.576;2023-02-11T12:39:20;20.03;;;13.90;;
11121;SDS011;5615;49.304;10.576;2023-02-11T12:42:03;21.73;;;14.77;;
11121;SDS011;5615;49.304;10.576;2023-02-11T12:45:08;23.20;;;14.70;;
11121;SDS011;5615;49.304;10.576;2023-02-11T12:47:47;21.43;;;15.10;;
11121;SDS011;5615;49.304;10.576;2023-02-11T12:50:23;22.27;;;14.17;;
11121;SDS011;5615;49.304;10.576;2023-02-11T12:53:07;22.20;;;14.97;;
11121;SDS011;5615;49.304;10.576;2023-02-11T12:55:47;22.57;;;15.23;;
11121;SDS011;5615;49.304;10.576;2023-02-11T12:58:18;25.03;;;15.37;;
11121;SDS011;5615;49.304;10.576;2023-02-11T13:00:49;23.10;;;15.17;;
11121;SDS011;5615;49.304;10.576;2023-02-11T13:03:19;22.73;;;14.27;;
11121;SDS011;5615;49.304;10.576;2023-02-11T13:05:50;25.17;;;14.90;;
11121;SDS011;5615;49.304;10.576;2023-02-11T13:08:20;23.83;;;15.97;;
11121;SDS011;5615;49.304;10.576;2023-02-11T13:10:53;26.40;;;16.57;;
11121;SDS011;5615;49.304;10.576;2023-02-11T13:13:24;25.13;;;17.33;;
11121;SDS011;5615;49.304;10.576;2023-02-11T13:15:55;22.27;;;14.67;;
11121;SDS011;5615;49.304;10.576;2023-02-11T13:21:20;26.60;;;16.17;;
11121;SDS011;5615;49.304;10.576;2023-02-11T13:24:00;28.03;;;16.03;;
11121;SDS011;5615;49.304;10.576;2023-02-11T13:26:44;24.10;;;16.03;;
11121;SDS011;5615;49.304;10.576;2023-02-11T13:29:22;24.57;;;16.20;;
11121;SDS011;5615;49.304;10.576;2023-02-11T13:32:05;28.57;;;16.07;;
11121;SDS011;5615;49.304;10.576;2023-02-11T13:37:24;31.37;;;19.87;;
11121;SDS011;5615;49.304;10.576;2023-02-11T13:40:00;26.03;;;16.17;;
11121;SDS011;5615;49.304;10.576;2023-02-11T13:42:29;24.10;;;16.57;;
11121;SDS011;5615;49.304;10.576;2023-02-11T13:44:59;27.00;;;17.10;;
11121;SDS011;5615;49.304;10.576;2023-02-11T13:47:28;25.93;;;17.60;;
11121;SDS011;5615;49.304;10.576;2023-02-11T13:49:56;22.17;;;16.63;;
11121;SDS011;5615;49.304;10.576;2023-02-11T13:52:25;23.93;;;16.87;;
11121;SDS011;5615;49.304;10.576;2023-02-11T13:54:54;22.73;;;16.03;;
11121;SDS011;5615;49.304;10.576;2023-02-11T13:57:26;28.53;;;17.53;;
11121;SDS011;5615;49.304;10.576;2023-02-11T13:59:57;23.53;;;16.73;;
11121;SDS011;5615;49.304;10.576;2023-02-11T14:02:29;26.27;;;17.07;;
11121;SDS011;5615;49.304;10.576;2023-02-11T14:05:19;24.77;;;17.00;;
11121;SDS011;5615;49.304;10.576;2023-02-11T14:08:17;23.20;;;16.43;;
11121;SDS011;5615;49.304;10.576;2023-02-11T14:11:03;24.83;;;17.83;;
11121;SDS011;5615;49.304;10.576;2023-02-11T14:13:36;24.90;;;17.40;;
11121;SDS011;5615;49.304;10.576;2023-02-11T14:19:49;27.30;;;18.07;;
11121;SDS011;5615;49.304;10.576;2023-02-11T14:22:18;24.37;;;17.70;;
11121;SDS011;5615;49.304;10.576;2023-02-11T14:24:53;27.27;;;18.13;;
11121;SDS011;5615;49.304;10.576;2023-02-11T14:30:14;27.37;;;18.87;;
11121;SDS011;5615;49.304;10.576;2023-02-11T14:33:00;30.10;;;18.63;;
11121;SDS011;5615;49.304;10.576;2023-02-11T14:35:50;29.00;;;18.93;;
11121;SDS011;5615;49.304;10.576;2023-02-11T14:38:30;27.77;;;17.77;;
11121;SDS011;5615;49.304;10.576;2023-02-11T14:41:07;23.87;;;18.70;;
11121;SDS011;5615;49.304;10.576;2023-02-11T14:43:41;26.77;;;17.70;;
11121;SDS011;5615;49.304;10.576;2023-02-11T14:46:11;26.63;;;18.00;;
11121;SDS011;5615;49.304;10.576;2023-02-11T14:48:42;38.53;;;22.33;;
11121;SDS011;5615;49.304;10.576;2023-02-11T14:51:14;30.20;;;19.37;;
11121;SDS011;5615;49.304;10.576;2023-02-11T14:53:45;30.47;;;18.63;;
11121;SDS011;5615;49.304;10.576;2023-02-11T14:56:17;31.13;;;18.93;;
11121;SDS011;5615;49.304;10.576;2023-02-11T14:58:46;29.57;;;18.90;;